Pagrindinis puslapis
METAR-TAF:

METAR-TAF

Oro uostai :

Aransas County Airport

Rockport, Teksasas, Jungtinės Amerikos Valstijos

platuma: 28-05-01N, ilguma: 097-02-47W, Aukštis: 7 m

Dabartinis oras

Ataskaita buvo paskelbta 13 minutes, ne 02:53 UTC
Vėjas 11 kt iš Pietryčių
Temperatūra 29°C
Drėgmė 79%
Slėgis 1013 hPa
Matomumas: 12.9 km
Mažai debesys ne aukštis 1900 ft

METAR: KRKP 250253Z AUTO 14011KT 8SM FEW019 29/25 A2992 RMK AO2 SLP134 T02940250 51009

Laikas: 22:06 (03:06 UTC)


TAF: trūkstamas

Orai ataskaitas ir orų prognozės (METAR, TAF).

turimą stotys yra geltonos ir raudonos taškus žemėlapyje.

Perkelti pele per norėdami pamatyti stoties vardą.

Tada spustelėkite, norėdami matyti oro stebėjimo ir prognozės.

Norėdami pakeisti žemėlapį: spustelėkite ant žalios mygtukų su juodo kryžiaus žemyn,; žalią mygtuką su brūkšneliu, jei norite nutolinti; arba žalių rodyklių gretimoms žemėlapius.


METAR-TAF: